Bigbee, Mississippi
Current Conditions -  °F | °C
As of 9:15 AM on Saturday 20 Dec 2014 (Local Time) from KM40 Reporting Station
Haze Haze  
Wind Chill: 43°   Ceiling: Unl
Heat Index: 43°   Visibility: 5mi
Dew Point: 30°   Wind: 3mph
Humidity: 61%   Direction: 60°ENE
Pressure: 30.28"   Gusts: NA
Location:  33.9755°N, 88.4422°W
Report Text: KM40 201515Z AUTO 06003KT 5SM HZ CLR 06/M01 A3028 RMK AO2
Loading
Personal Weather Stations






























Interactive Weather Map New forecast layout! Learn more

10-Day Weather Forecast

Advertisements
Track Severe Weather on mobile